createdAt,value
2022-12-18T00:00:02.889Z,98991.28
2022-12-18T00:02:31.321Z,98980.94
2022-12-18T00:04:58.662Z,98903.25
2022-12-18T00:07:26.383Z,98979.22
2022-12-18T00:09:53.716Z,98970.56
2022-12-18T00:12:21.116Z,98974.00
2022-12-18T00:14:48.485Z,98967.09
2022-12-18T00:17:15.881Z,98963.69
2022-12-18T00:19:43.295Z,98955.91
2022-12-18T00:22:10.982Z,98943.00
2022-12-18T00:24:38.670Z,98944.69
2022-12-18T00:27:05.894Z,98812.72
2022-12-18T00:29:33.571Z,98950.72
2022-12-18T00:32:00.978Z,98943.00
2022-12-18T00:34:28.319Z,98905.03
2022-12-18T00:36:56.038Z,98936.97
2022-12-18T00:39:23.527Z,98932.66
2022-12-18T00:42:09.902Z,98937.81
2022-12-18T00:44:37.446Z,98934.34
2022-12-18T00:47:04.787Z,98923.16
2022-12-18T00:49:32.455Z,98919.72
2022-12-18T00:52:00.170Z,98859.34
2022-12-18T00:54:27.666Z,98908.56
2022-12-18T00:56:56.440Z,98893.06
2022-12-18T00:59:23.811Z,98857.72
2022-12-18T01:01:51.863Z,98802.59
2022-12-18T01:04:21.264Z,98881.88
2022-12-18T01:06:49.501Z,98883.59
2022-12-18T01:09:16.973Z,98720.78
2022-12-18T01:11:44.768Z,98727.63
2022-12-18T01:14:12.141Z,98872.41
2022-12-18T01:16:39.753Z,98836.25
2022-12-18T01:19:07.925Z,98858.59
2022-12-18T01:21:35.386Z,98856.03
2022-12-18T01:24:05.472Z,98866.38
2022-12-18T01:26:33.225Z,98867.22
2022-12-18T01:29:00.579Z,98864.63
2022-12-18T01:31:30.622Z,98867.22
2022-12-18T01:33:59.617Z,98876.69
2022-12-18T01:36:33.085Z,98747.41
2022-12-18T01:39:02.323Z,98834.44
2022-12-18T01:41:51.236Z,98862.06
2022-12-18T01:44:59.146Z,98864.63
2022-12-18T01:47:37.846Z,98756.91
2022-12-18T01:50:37.175Z,98856.88
2022-12-18T01:53:11.679Z,98862.88
2022-12-18T01:55:51.998Z,98855.16
2022-12-18T01:58:22.922Z,98864.63
2022-12-18T02:00:50.472Z,98859.47
2022-12-18T02:03:20.673Z,98853.44
2022-12-18T02:06:02.642Z,98850.00
2022-12-18T02:08:32.976Z,98857.78
2022-12-18T02:11:01.085Z,98855.16
2022-12-18T02:13:47.643Z,98852.56
2022-12-18T02:16:28.799Z,98868.03
2022-12-18T02:19:01.883Z,98860.31
2022-12-18T02:21:42.529Z,98858.59
2022-12-18T02:24:35.236Z,98861.16
2022-12-18T02:27:11.880Z,98863.75
2022-12-18T02:29:57.939Z,98850.84
2022-12-18T02:32:30.894Z,98847.38
2022-12-18T02:35:00.835Z,98857.69
2022-12-18T02:37:32.604Z,98849.97
2022-12-18T02:40:05.573Z,98844.78
2022-12-18T02:42:35.611Z,98843.91
2022-12-18T02:45:05.857Z,98855.97
2022-12-18T02:47:39.670Z,98856.84
2022-12-18T02:50:13.240Z,98821.44
2022-12-18T02:53:10.213Z,98875.75
2022-12-18T02:56:02.312Z,98859.41
2022-12-18T02:58:46.458Z,98862.88
2022-12-18T03:01:34.761Z,98850.84
2022-12-18T03:04:09.194Z,98866.31
2022-12-18T03:06:51.036Z,98841.34
2022-12-18T03:09:44.043Z,98842.19
2022-12-18T03:12:32.575Z,98847.38
2022-12-18T03:15:17.269Z,98848.25
2022-12-18T03:17:56.374Z,98841.31
2022-12-18T03:20:28.732Z,98855.97
2022-12-18T03:23:03.905Z,98874.03
2022-12-18T03:25:33.046Z,98793.88
2022-12-18T03:28:03.257Z,98859.41
2022-12-18T03:30:34.830Z,98846.50
2022-12-18T03:33:08.851Z,98842.22
2022-12-18T03:35:43.219Z,98846.50
2022-12-18T03:38:13.002Z,98865.44
2022-12-18T03:40:50.607Z,98853.41
2022-12-18T03:43:50.156Z,98852.47
2022-12-18T03:46:20.713Z,98842.19
2022-12-18T03:48:53.050Z,98863.66
2022-12-18T03:51:46.906Z,98845.59
2022-12-18T03:54:15.082Z,98855.88
2022-12-18T03:57:00.876Z,98845.53
2022-12-18T03:59:31.489Z,98726.63
2022-12-18T04:02:02.014Z,98860.16
2022-12-18T04:04:31.623Z,98855.03
2022-12-18T04:07:03.136Z,98842.09
2022-12-18T04:09:33.195Z,98847.25
2022-12-18T04:12:00.489Z,98844.72
2022-12-18T04:14:28.368Z,98860.16
2022-12-18T04:16:57.477Z,98880.84
2022-12-18T04:19:31.048Z,98894.63
2022-12-18T04:21:59.853Z,98892.06
2022-12-18T04:24:28.075Z,98892.03
2022-12-18T04:27:06.624Z,98894.63
2022-12-18T04:29:40.763Z,98904.09
2022-12-18T04:32:09.566Z,98901.50
2022-12-18T04:34:38.351Z,98931.56
2022-12-18T04:37:06.545Z,98796.97
2022-12-18T04:39:34.260Z,98916.88
2022-12-18T04:42:10.253Z,98932.38
2022-12-18T04:44:37.916Z,98938.38
2022-12-18T04:47:05.766Z,98944.44
2022-12-18T04:49:33.091Z,98945.28
2022-12-18T04:52:00.544Z,98943.56
2022-12-18T04:54:27.905Z,98951.28
2022-12-18T04:56:55.503Z,98957.25
2022-12-18T04:59:22.874Z,98880.47
2022-12-18T05:01:51.070Z,98944.38
2022-12-18T05:04:18.378Z,98944.38
2022-12-18T05:06:46.238Z,98937.44
2022-12-18T05:09:13.804Z,98942.63
2022-12-18T05:11:41.131Z,98948.63
2022-12-18T05:14:09.593Z,98954.63
2022-12-18T05:16:37.055Z,98959.78
2022-12-18T05:19:04.527Z,98952.94
2022-12-18T05:21:32.274Z,98955.47
2022-12-18T05:23:59.737Z,98933.91
2022-12-18T05:26:27.151Z,98907.09
2022-12-18T05:28:54.571Z,98981.25
2022-12-18T05:31:21.968Z,98976.94
2022-12-18T05:33:49.233Z,98990.72
2022-12-18T05:36:16.878Z,98995.88
2022-12-18T05:38:44.271Z,99003.66
2022-12-18T05:41:11.950Z,98949.19
2022-12-18T05:43:41.580Z,98999.25
2022-12-18T05:46:14.155Z,99017.34
2022-12-18T05:48:42.509Z,99022.56
2022-12-18T05:51:15.609Z,99017.38
2022-12-18T05:53:44.154Z,99024.28
2022-12-18T05:56:14.328Z,99020.78
2022-12-18T05:58:42.519Z,99034.59
2022-12-18T06:01:17.206Z,99030.25
2022-12-18T06:03:45.413Z,99033.72
2022-12-18T06:06:22.300Z,99028.53
2022-12-18T06:08:50.553Z,99038.88
2022-12-18T06:11:20.778Z,99045.72
2022-12-18T06:13:54.772Z,99053.47
2022-12-18T06:16:25.906Z,99029.28
2022-12-18T06:18:53.498Z,99061.25
2022-12-18T06:21:20.953Z,99055.22
2022-12-18T06:23:48.203Z,99068.13
2022-12-18T06:26:17.051Z,99071.53
2022-12-18T06:28:44.462Z,99062.84
2022-12-18T06:31:12.291Z,99084.41
2022-12-18T06:33:40.594Z,99074.13
2022-12-18T06:36:13.669Z,99084.50
2022-12-18T06:38:43.885Z,99082.78
2022-12-18T06:41:13.954Z,99106.88
2022-12-18T06:43:41.859Z,99108.59
2022-12-18T06:46:10.291Z,99029.94
2022-12-18T06:48:38.357Z,99118.03
2022-12-18T06:51:06.204Z,99130.19
2022-12-18T06:53:34.551Z,99146.59
2022-12-18T06:56:10.361Z,99141.44
2022-12-18T06:58:39.672Z,99144.88
2022-12-18T07:01:10.960Z,99074.00
2022-12-18T07:03:44.358Z,99143.06
2022-12-18T07:06:20.616Z,99151.72
2022-12-18T07:08:49.297Z,99152.59
2022-12-18T07:11:17.952Z,99158.56
2022-12-18T07:13:45.741Z,99144.81
2022-12-18T07:16:23.914Z,99161.22
2022-12-18T07:18:53.108Z,99065.22
2022-12-18T07:21:21.827Z,99172.50
2022-12-18T07:23:49.639Z,99183.69
2022-12-18T07:26:20.090Z,99079.94
2022-12-18T07:28:47.835Z,99192.34
2022-12-18T07:31:22.054Z,99194.09
2022-12-18T07:33:51.050Z,99201.06
2022-12-18T07:36:19.071Z,99184.56
2022-12-18T07:38:49.362Z,99181.94
2022-12-18T07:41:17.567Z,99204.34
2022-12-18T07:43:45.252Z,99128.22
2022-12-18T07:46:15.234Z,99109.19
2022-12-18T07:48:46.267Z,99210.31
2022-12-18T07:51:19.013Z,99209.47
2022-12-18T07:53:46.261Z,99202.66
2022-12-18T07:56:31.265Z,99189.66
2022-12-18T07:59:00.637Z,99214.63
2022-12-18T08:01:28.455Z,99219.03
2022-12-18T08:03:56.087Z,99222.53
2022-12-18T08:06:24.996Z,99233.75
2022-12-18T08:08:56.251Z,99221.78
2022-12-18T08:11:26.171Z,99256.13
2022-12-18T08:13:54.501Z,99250.13
2022-12-18T08:16:23.244Z,99248.44
2022-12-18T08:18:51.100Z,99272.56
2022-12-18T08:21:24.041Z,99269.13
2022-12-18T08:23:53.803Z,99272.53
2022-12-18T08:26:21.814Z,99271.69
2022-12-18T08:28:50.894Z,99189.47
2022-12-18T08:31:19.663Z,99277.75
2022-12-18T08:33:50.250Z,99251.00
2022-12-18T08:36:18.653Z,99276.88
2022-12-18T08:38:45.976Z,99291.50
2022-12-18T08:41:16.293Z,99280.34
2022-12-18T08:44:02.371Z,99285.41
2022-12-18T08:46:35.319Z,99289.78
2022-12-18T08:49:03.500Z,99242.16
2022-12-18T08:51:31.821Z,99159.97
2022-12-18T08:53:59.239Z,99297.59
2022-12-18T08:56:26.736Z,99303.69
2022-12-18T08:58:55.615Z,99199.03
2022-12-18T09:01:23.817Z,99273.53
2022-12-18T09:03:52.219Z,99292.50
2022-12-18T09:06:23.182Z,99298.53
2022-12-18T09:08:50.964Z,99284.72
2022-12-18T09:11:23.330Z,99303.72
2022-12-18T09:14:11.460Z,99238.88
2022-12-18T09:16:39.203Z,99322.78
2022-12-18T09:19:07.315Z,99326.19
2022-12-18T09:21:42.279Z,99334.88
2022-12-18T09:24:15.127Z,99347.88
2022-12-18T09:26:43.463Z,99258.75
2022-12-18T09:29:14.626Z,99353.94
2022-12-18T09:31:42.623Z,99343.59
2022-12-18T09:34:10.293Z,99345.19
2022-12-18T09:36:37.838Z,99263.81
2022-12-18T09:39:08.530Z,99355.69
2022-12-18T09:41:42.274Z,99372.09
2022-12-18T09:44:44.515Z,99360.81
2022-12-18T09:47:25.191Z,99361.69
2022-12-18T09:49:56.695Z,99369.50
2022-12-18T09:52:37.497Z,99366.97
2022-12-18T09:55:10.561Z,99373.88
2022-12-18T09:57:46.227Z,99376.41
2022-12-18T10:00:20.400Z,99378.22
2022-12-18T10:02:48.674Z,99378.28
2022-12-18T10:05:30.320Z,99387.69
2022-12-18T10:08:18.499Z,99379.78
2022-12-18T10:11:27.758Z,99388.34
2022-12-18T10:14:27.851Z,99387.53
2022-12-18T10:17:11.226Z,99395.31
2022-12-18T10:19:50.518Z,99385.81
2022-12-18T10:22:27.785Z,99392.78
2022-12-18T10:25:18.418Z,99385.03
2022-12-18T10:27:46.632Z,99386.72
2022-12-18T10:30:19.780Z,99381.59
2022-12-18T10:32:47.363Z,99295.84
2022-12-18T10:35:24.287Z,99386.63
2022-12-18T10:38:10.423Z,99396.06
2022-12-18T10:40:52.470Z,99404.66
2022-12-18T10:43:40.659Z,99402.09
2022-12-18T10:46:11.261Z,99417.63
2022-12-18T10:48:48.437Z,99418.44
2022-12-18T10:51:31.581Z,99426.16
2022-12-18T10:54:18.449Z,99426.16
2022-12-18T10:56:46.619Z,99359.44
2022-12-18T10:59:16.888Z,99452.19
2022-12-18T11:01:59.137Z,99466.81
2022-12-18T11:04:30.037Z,99460.78
2022-12-18T11:07:09.432Z,99461.66
2022-12-18T11:09:38.923Z,99432.09
2022-12-18T11:12:29.764Z,99465.97
2022-12-18T11:14:58.823Z,99459.84
2022-12-18T11:17:36.858Z,99468.41
2022-12-18T11:20:10.818Z,99451.81
2022-12-18T11:22:39.723Z,99401.53
2022-12-18T11:25:33.540Z,99397.19
2022-12-18T11:28:05.447Z,99464.69
2022-12-18T11:30:38.664Z,99319.91
2022-12-18T11:33:22.239Z,99467.22
2022-12-18T11:35:58.709Z,99488.72
2022-12-18T11:38:29.822Z,99477.44
2022-12-18T11:41:06.563Z,99485.25
2022-12-18T11:43:49.896Z,99475.66
2022-12-18T11:46:27.846Z,99469.63
2022-12-18T11:49:09.332Z,99436.66
2022-12-18T11:51:44.662Z,99500.09
2022-12-18T11:54:16.999Z,99513.03
2022-12-18T11:57:09.285Z,99523.50
2022-12-18T11:59:40.011Z,99529.59
2022-12-18T12:02:25.930Z,99537.25
2022-12-18T12:05:05.740Z,99533.75
2022-12-18T12:08:15.723Z,99551.84
2022-12-18T12:11:01.269Z,99550.16
2022-12-18T12:13:43.554Z,99484.09
2022-12-18T12:16:14.383Z,99564.75
2022-12-18T12:18:45.269Z,99569.00
2022-12-18T12:21:43.466Z,99576.75
2022-12-18T12:24:19.766Z,99576.75
2022-12-18T12:26:55.897Z,99575.72
2022-12-18T12:29:54.636Z,99583.50
2022-12-18T12:32:45.131Z,99588.66
2022-12-18T12:35:41.082Z,99593.00
2022-12-18T12:38:15.214Z,99598.19
2022-12-18T12:40:56.652Z,99591.94
2022-12-18T12:43:29.921Z,99604.84
2022-12-18T12:46:05.942Z,99609.13
2022-12-18T12:48:44.280Z,99623.00
2022-12-18T12:51:14.855Z,99625.66
2022-12-18T12:53:43.805Z,99564.72
2022-12-18T12:56:14.713Z,99632.53
2022-12-18T12:59:33.923Z,99639.31
2022-12-18T13:02:18.111Z,99650.44
2022-12-18T13:04:53.835Z,99560.16
2022-12-18T13:07:58.605Z,99655.53
2022-12-18T13:10:39.380Z,99652.06
2022-12-18T13:13:13.701Z,99670.25
2022-12-18T13:15:46.979Z,99668.63
2022-12-18T13:18:24.709Z,99671.28
2022-12-18T13:21:05.292Z,99684.16
2022-12-18T13:23:38.126Z,99673.78
2022-12-18T13:26:11.407Z,99690.31
2022-12-18T13:28:48.545Z,99698.91
2022-12-18T13:31:43.396Z,99696.31
2022-12-18T13:34:31.153Z,99706.47
2022-12-18T13:37:33.986Z,99713.31
2022-12-18T13:40:01.844Z,99700.41
2022-12-18T13:42:49.022Z,99728.13
2022-12-18T13:45:47.591Z,99726.19
2022-12-18T13:48:24.940Z,99726.19
2022-12-18T13:51:00.710Z,99734.81
2022-12-18T13:53:33.891Z,99753.97
2022-12-18T13:56:01.903Z,99753.19
2022-12-18T13:58:29.269Z,99760.97
2022-12-18T14:01:00.437Z,99749.78
2022-12-18T14:03:30.261Z,99745.31
2022-12-18T14:06:06.896Z,99764.56
2022-12-18T14:08:45.264Z,99757.66
2022-12-18T14:11:26.459Z,99700.16
2022-12-18T14:13:54.532Z,99756.69
2022-12-18T14:16:23.122Z,99786.34
2022-12-18T14:19:14.836Z,99780.28
2022-12-18T14:21:48.854Z,99801.03
2022-12-18T14:24:20.040Z,99790.63
2022-12-18T14:26:50.321Z,99801.00
2022-12-18T14:29:21.584Z,99821.63
2022-12-18T14:32:14.913Z,99813.66
2022-12-18T14:34:46.431Z,99826.75
2022-12-18T14:37:16.805Z,99836.13
2022-12-18T14:40:08.777Z,99707.38
2022-12-18T14:42:38.722Z,99839.66
2022-12-18T14:45:41.694Z,99801.81
2022-12-18T14:48:11.004Z,99854.69
2022-12-18T14:50:41.251Z,99862.41
2022-12-18T14:53:24.085Z,99836.13
2022-12-18T14:55:52.697Z,99872.53
2022-12-18T14:58:20.468Z,99873.44
2022-12-18T15:00:47.962Z,99860.16
2022-12-18T15:03:21.471Z,99888.94
2022-12-18T15:05:49.424Z,99799.28
2022-12-18T15:08:32.405Z,99888.03
2022-12-18T15:11:00.167Z,99891.47
2022-12-18T15:13:28.022Z,99897.63
2022-12-18T15:15:59.126Z,99900.19
2022-12-18T15:18:35.885Z,99876.56
2022-12-18T15:21:11.722Z,99906.00
2022-12-18T15:23:45.286Z,99913.63
2022-12-18T15:26:16.034Z,99911.84
2022-12-18T15:28:51.225Z,99850.50
2022-12-18T15:31:19.122Z,99927.28
2022-12-18T15:34:04.176Z,99925.47
2022-12-18T15:36:32.342Z,99923.72
2022-12-18T15:39:04.568Z,99839.25
2022-12-18T15:41:36.809Z,99935.78
2022-12-18T15:44:23.181Z,99934.69
2022-12-18T15:46:50.738Z,99927.69
2022-12-18T15:49:18.037Z,99928.53
2022-12-18T15:51:45.807Z,99945.88
2022-12-18T15:54:17.411Z,99871.09
2022-12-18T15:57:03.109Z,99943.47
2022-12-18T15:59:31.044Z,99948.50
2022-12-18T16:01:58.658Z,99957.06
2022-12-18T16:04:26.736Z,99860.28
2022-12-18T16:09:42.111Z,99981.09
2022-12-18T16:12:18.791Z,99984.44
2022-12-18T16:14:46.767Z,99988.72
2022-12-18T16:17:15.372Z,99999.78
2022-12-18T16:19:44.388Z,99926.31
2022-12-18T16:22:26.440Z,100002.06
2022-12-18T16:24:55.426Z,99916.59
2022-12-18T16:27:23.998Z,100007.19
2022-12-18T16:29:51.883Z,100036.59
2022-12-18T16:32:22.167Z,100021.84
2022-12-18T16:34:50.631Z,99927.66
2022-12-18T16:37:18.272Z,100027.03
2022-12-18T16:39:45.844Z,100025.25
2022-12-18T16:42:21.267Z,100034.44
2022-12-18T16:44:50.353Z,100045.34
2022-12-18T16:47:18.504Z,100053.69
2022-12-18T16:49:46.628Z,100054.31
2022-12-18T16:52:14.520Z,100059.09
2022-12-18T16:54:42.068Z,100058.97
2022-12-18T16:57:13.247Z,99968.75
2022-12-18T16:59:40.923Z,100065.19
2022-12-18T17:02:23.431Z,100075.25
2022-12-18T17:04:55.234Z,100081.03
2022-12-18T17:07:22.575Z,99987.31
2022-12-18T17:09:51.305Z,99994.06
2022-12-18T17:12:19.039Z,99998.22
2022-12-18T17:14:46.574Z,100096.75
2022-12-18T17:17:23.188Z,100100.94
2022-12-18T17:19:52.565Z,100104.84
2022-12-18T17:22:21.523Z,100108.00
2022-12-18T17:24:48.919Z,100110.09
2022-12-18T17:27:16.673Z,100118.38
2022-12-18T17:29:48.322Z,100127.50
2022-12-18T17:32:17.587Z,100130.63
2022-12-18T17:34:45.251Z,100132.19
2022-12-18T17:37:13.191Z,100131.13
2022-12-18T17:39:40.455Z,100124.69
2022-12-18T17:42:10.903Z,100147.81
2022-12-18T17:44:42.905Z,100136.22
2022-12-18T17:47:12.452Z,100156.88
2022-12-18T17:49:39.942Z,100154.59
2022-12-18T17:52:07.943Z,100171.78
2022-12-18T17:54:40.016Z,100175.25
2022-12-18T17:57:07.971Z,100182.78
2022-12-18T17:59:35.582Z,100063.69
2022-12-18T18:02:03.443Z,100176.50
2022-12-18T18:04:31.033Z,100179.75
2022-12-18T18:06:58.639Z,100182.09
2022-12-18T18:09:26.380Z,100199.03
2022-12-18T18:12:12.172Z,100142.00
2022-12-18T18:14:40.012Z,100198.06
2022-12-18T18:17:07.918Z,100204.00
2022-12-18T18:19:35.330Z,100203.34
2022-12-18T18:22:03.777Z,100210.28
2022-12-18T18:24:33.502Z,100219.69
2022-12-18T18:27:00.932Z,100208.34
2022-12-18T18:29:32.572Z,100220.28
2022-12-18T18:32:00.346Z,100211.91
2022-12-18T18:34:30.482Z,100230.13
2022-12-18T18:36:59.678Z,100231.28
2022-12-18T18:39:27.684Z,100240.56
2022-12-18T18:41:55.297Z,100249.03
2022-12-18T18:44:25.612Z,100264.22
2022-12-18T18:46:57.861Z,100077.47
2022-12-18T18:49:28.108Z,100201.78
2022-12-18T18:51:57.010Z,100260.84
2022-12-18T18:54:25.426Z,100196.97
2022-12-18T18:57:19.376Z,100086.63
2022-12-18T18:59:41.705Z,100271.72
2022-12-18T19:02:15.135Z,100270.94
2022-12-18T19:04:45.785Z,100284.72
2022-12-18T19:07:18.528Z,100226.31
2022-12-18T19:09:57.150Z,100233.75
2022-12-18T19:12:45.658Z,100308.91
2022-12-18T19:15:13.887Z,100275.22
2022-12-18T19:17:41.803Z,100323.94
2022-12-18T19:20:12.063Z,100324.75
2022-12-18T19:22:40.642Z,100328.88
2022-12-18T19:25:09.494Z,100343.44
2022-12-18T19:27:39.065Z,100227.81
2022-12-18T19:30:07.764Z,100333.50
2022-12-18T19:32:35.223Z,100339.59
2022-12-18T19:35:02.924Z,100348.91
2022-12-18T19:37:30.989Z,100276.97
2022-12-18T19:39:58.503Z,100347.44
2022-12-18T19:42:34.860Z,100357.63
2022-12-18T19:45:03.173Z,100358.00
2022-12-18T19:47:31.603Z,100372.72
2022-12-18T19:49:59.011Z,100370.97
2022-12-18T19:52:26.672Z,100373.59
2022-12-18T19:54:54.321Z,100370.03
2022-12-18T19:57:21.701Z,100374.19
2022-12-18T19:59:49.784Z,100367.88
2022-12-18T20:02:19.033Z,100378.88
2022-12-18T20:04:46.791Z,100385.41
2022-12-18T20:07:14.651Z,100340.41
2022-12-18T20:09:42.295Z,100390.78
2022-12-18T20:12:09.842Z,100387.75
2022-12-18T20:14:37.793Z,100401.50
2022-12-18T20:17:05.701Z,100393.59
2022-12-18T20:19:33.750Z,100412.56
2022-12-18T20:22:02.465Z,100340.09
2022-12-18T20:24:30.084Z,100411.25
2022-12-18T20:26:57.290Z,100408.44
2022-12-18T20:29:25.315Z,100409.03
2022-12-18T20:31:52.952Z,100407.63
2022-12-18T20:34:20.512Z,100425.84
2022-12-18T20:36:48.065Z,100418.09
2022-12-18T20:39:17.895Z,100419.59
2022-12-18T20:41:45.952Z,100417.00
2022-12-18T20:44:22.583Z,100412.50
2022-12-18T20:46:58.187Z,100414.03
2022-12-18T20:49:26.838Z,100421.78
2022-12-18T20:51:56.625Z,100431.84
2022-12-18T20:54:25.938Z,100432.72
2022-12-18T20:56:53.798Z,100431.72
2022-12-18T20:59:21.267Z,100436.91
2022-12-18T21:01:49.615Z,100447.94
2022-12-18T21:04:38.696Z,100448.09
2022-12-18T21:07:06.249Z,100439.63
2022-12-18T21:09:38.097Z,100462.16
2022-12-18T21:12:29.667Z,100273.91
2022-12-18T21:15:01.895Z,100417.66
2022-12-18T21:17:34.725Z,100422.34
2022-12-18T21:20:18.048Z,100444.94
2022-12-18T21:22:47.557Z,100454.56
2022-12-18T21:25:15.225Z,100453.03
2022-12-18T21:27:42.532Z,100447.84
2022-12-18T21:30:10.597Z,100449.91
2022-12-18T21:32:38.489Z,100425.91
2022-12-18T21:35:06.131Z,100457.19
2022-12-18T21:37:33.790Z,100457.72
2022-12-18T21:40:01.108Z,100460.91
2022-12-18T21:42:47.214Z,100458.25
2022-12-18T21:45:15.073Z,100408.88
2022-12-18T21:47:42.414Z,100459.38
2022-12-18T21:50:10.036Z,100453.13
2022-12-18T21:52:37.557Z,100463.00
2022-12-18T21:55:09.323Z,100467.31
2022-12-18T21:57:39.449Z,100471.53
2022-12-18T22:00:11.238Z,100478.16
2022-12-18T22:02:47.003Z,100484.78
2022-12-18T22:05:14.432Z,100417.66
2022-12-18T22:07:41.728Z,100262.81
2022-12-18T22:10:10.045Z,100499.88
2022-12-18T22:12:44.452Z,100490.06
2022-12-18T22:15:18.658Z,100501.56
2022-12-18T22:17:50.735Z,100385.09
2022-12-18T22:20:19.865Z,100503.00
2022-12-18T22:22:48.604Z,100497.88
2022-12-18T22:25:16.118Z,100500.28
2022-12-18T22:28:03.999Z,100495.56
2022-12-18T22:30:31.388Z,100503.94
2022-12-18T22:32:58.879Z,100412.81
2022-12-18T22:35:26.484Z,100489.09
2022-12-18T22:37:53.968Z,100495.09
2022-12-18T22:40:25.484Z,100500.03
2022-12-18T22:42:54.110Z,100502.53
2022-12-18T22:45:21.806Z,100497.31
2022-12-18T22:47:49.191Z,100505.78
2022-12-18T22:50:16.649Z,100515.22
2022-12-18T22:52:44.412Z,100356.88
2022-12-18T22:55:11.702Z,100472.44
2022-12-18T22:57:40.629Z,100502.38
2022-12-18T23:00:13.199Z,100495.50
2022-12-18T23:02:40.555Z,100510.63
2022-12-18T23:05:09.206Z,100518.28
2022-12-18T23:07:36.728Z,100452.31
2022-12-18T23:10:04.137Z,100523.31
2022-12-18T23:12:31.683Z,100523.41
2022-12-18T23:15:00.825Z,100528.69
2022-12-18T23:17:29.031Z,100491.34
2022-12-18T23:19:56.657Z,100532.06
2022-12-18T23:22:24.062Z,100534.94
2022-12-18T23:24:51.559Z,100520.22
2022-12-18T23:27:19.264Z,100532.06
2022-12-18T23:29:46.590Z,100433.72
2022-12-18T23:32:15.508Z,100539.66
2022-12-18T23:34:43.135Z,100532.69
2022-12-18T23:37:10.689Z,100546.91
2022-12-18T23:39:37.922Z,100510.88
2022-12-18T23:42:05.612Z,100550.59
2022-12-18T23:44:33.525Z,100544.78
2022-12-18T23:47:00.986Z,100553.16
2022-12-18T23:49:29.540Z,100539.97
2022-12-18T23:51:57.005Z,100567.25
2022-12-18T23:54:33.173Z,100567.50
2022-12-18T23:57:01.785Z,100575.63
2022-12-18T23:59:29.138Z,100580.59
